createdAt,value
2022-10-31T00:01:29.991Z,98255.13
2022-10-31T00:03:56.604Z,98273.53
2022-10-31T00:06:25.104Z,98264.22
2022-10-31T00:08:57.038Z,98264.84
2022-10-31T00:11:27.735Z,98260.94
2022-10-31T00:13:58.194Z,98267.69
2022-10-31T00:16:29.357Z,98272.34
2022-10-31T00:19:04.135Z,98275.31
2022-10-31T00:21:31.750Z,98268.34
2022-10-31T00:23:59.663Z,98284.13
2022-10-31T00:26:30.575Z,98260.53
2022-10-31T00:29:01.391Z,98266.59
2022-10-31T00:31:28.475Z,98256.84
2022-10-31T00:33:57.338Z,98254.34
2022-10-31T00:36:23.900Z,98242.19
2022-10-31T00:38:50.418Z,98246.94
2022-10-31T00:41:18.666Z,98246.50
2022-10-31T00:43:45.648Z,98228.56
2022-10-31T00:46:13.478Z,98237.03
2022-10-31T00:48:40.277Z,98234.53
2022-10-31T00:51:07.163Z,98227.06
2022-10-31T00:53:33.886Z,98224.16
2022-10-31T00:56:00.636Z,98231.75
2022-10-31T00:58:30.771Z,98228.44
2022-10-31T01:01:01.131Z,98220.03
2022-10-31T01:03:33.088Z,98225.47
2022-10-31T01:06:12.151Z,98222.09
2022-10-31T01:08:39.729Z,98223.75
2022-10-31T01:11:08.164Z,98219.78
2022-10-31T01:13:36.081Z,98219.59
2022-10-31T01:16:04.389Z,98214.25
2022-10-31T01:18:31.509Z,98210.34
2022-10-31T01:21:09.573Z,98203.28
2022-10-31T01:23:36.384Z,98207.28
2022-10-31T01:26:05.950Z,98208.06
2022-10-31T01:28:32.681Z,98207.25
2022-10-31T01:31:04.806Z,98198.63
2022-10-31T01:33:31.414Z,98206.50
2022-10-31T01:35:59.844Z,98203.81
2022-10-31T01:38:26.577Z,98207.53
2022-10-31T01:40:53.412Z,98202.09
2022-10-31T01:45:54.616Z,98209.72
2022-10-31T01:48:27.945Z,98184.41
2022-10-31T01:50:55.880Z,98185.88
2022-10-31T01:53:26.814Z,98185.75
2022-10-31T01:55:54.012Z,98176.84
2022-10-31T01:58:26.560Z,98171.09
2022-10-31T02:01:03.411Z,98179.53
2022-10-31T02:03:34.001Z,98177.44
2022-10-31T02:06:07.258Z,98172.38
2022-10-31T02:08:36.176Z,98181.03
2022-10-31T02:11:08.335Z,98174.28
2022-10-31T02:13:35.279Z,98174.28
2022-10-31T02:16:05.171Z,98176.00
2022-10-31T02:18:35.166Z,98175.50
2022-10-31T02:21:24.100Z,98172.88
2022-10-31T02:24:08.709Z,98166.09
2022-10-31T02:26:47.285Z,98170.31
2022-10-31T02:29:49.817Z,98161.63
2022-10-31T02:32:39.754Z,98169.66
2022-10-31T02:35:24.910Z,98162.88
2022-10-31T02:38:05.443Z,98161.81
2022-10-31T02:40:37.196Z,98154.81
2022-10-31T02:45:50.936Z,98151.44
2022-10-31T02:48:25.407Z,98134.38
2022-10-31T02:50:58.862Z,98135.88
2022-10-31T02:53:25.404Z,98151.88
2022-10-31T02:56:13.948Z,98142.84
2022-10-31T02:58:56.743Z,98140.06
2022-10-31T03:01:35.673Z,98134.13
2022-10-31T03:04:24.372Z,98120.09
2022-10-31T03:07:00.991Z,98127.56
2022-10-31T03:09:52.790Z,98116.00
2022-10-31T03:12:30.686Z,98104.41
2022-10-31T03:15:14.423Z,98103.66
2022-10-31T03:17:50.781Z,98089.63
2022-10-31T03:20:23.567Z,98113.47
2022-10-31T03:22:50.205Z,98106.91
2022-10-31T03:25:17.983Z,98082.63
2022-10-31T03:27:47.151Z,98087.63
2022-10-31T03:30:15.141Z,98088.81
2022-10-31T03:32:55.595Z,98089.22
2022-10-31T03:35:25.024Z,98085.53
2022-10-31T03:37:55.610Z,98069.66
2022-10-31T03:40:25.956Z,98048.72
2022-10-31T03:43:24.149Z,98048.75
2022-10-31T03:45:50.934Z,98032.09
2022-10-31T03:48:21.121Z,98026.31
2022-10-31T03:51:07.840Z,98020.34
2022-10-31T03:54:08.182Z,98000.63
2022-10-31T03:56:52.365Z,97994.75
2022-10-31T03:59:24.798Z,97995.97
2022-10-31T04:01:55.705Z,97984.97
2022-10-31T04:04:22.901Z,97966.63
2022-10-31T04:06:51.636Z,97985.38
2022-10-31T04:09:20.380Z,97996.66
2022-10-31T04:11:52.029Z,98010.75
2022-10-31T04:14:18.520Z,98011.47
2022-10-31T04:16:46.213Z,98016.97
2022-10-31T04:19:13.415Z,98031.47
2022-10-31T04:21:40.023Z,98015.91
2022-10-31T04:24:07.165Z,98011.81
2022-10-31T04:26:34.557Z,98014.13
2022-10-31T04:29:01.295Z,98013.28
2022-10-31T04:31:28.303Z,98022.31
2022-10-31T04:33:54.962Z,97984.66
2022-10-31T04:36:21.651Z,97985.53
2022-10-31T04:38:48.151Z,97976.94
2022-10-31T04:41:14.673Z,97983.69
2022-10-31T04:43:43.935Z,97982.69
2022-10-31T04:46:13.523Z,97985.78
2022-10-31T04:48:42.848Z,97979.81
2022-10-31T04:51:10.508Z,98000.78
2022-10-31T04:53:37.055Z,97997.34
2022-10-31T04:56:03.824Z,97999.34
2022-10-31T04:58:30.366Z,97985.75
2022-10-31T05:00:57.646Z,97993.41
2022-10-31T05:03:24.295Z,98000.31
2022-10-31T05:05:50.959Z,97997.38
2022-10-31T05:08:17.447Z,98004.16
2022-10-31T05:10:43.961Z,98025.31
2022-10-31T05:13:16.532Z,98019.59
2022-10-31T05:15:43.095Z,98016.56
2022-10-31T05:18:09.699Z,98018.22
2022-10-31T05:20:36.229Z,97993.72
2022-10-31T05:23:02.807Z,98038.34
2022-10-31T05:25:30.555Z,98039.22
2022-10-31T05:27:58.271Z,98029.63
2022-10-31T05:30:28.048Z,98030.00
2022-10-31T05:32:54.611Z,98033.44
2022-10-31T05:35:26.941Z,98033.00
2022-10-31T05:37:53.525Z,98012.97
2022-10-31T05:40:21.430Z,98019.72
2022-10-31T05:42:48.676Z,98028.75
2022-10-31T05:45:17.109Z,97993.31
2022-10-31T05:47:50.860Z,98014.91
2022-10-31T05:50:17.522Z,98025.44
2022-10-31T05:52:45.073Z,98016.56
2022-10-31T05:55:11.593Z,98007.00
2022-10-31T05:57:38.094Z,98013.28
2022-10-31T06:00:06.066Z,98008.53
2022-10-31T06:02:35.623Z,98011.94
2022-10-31T06:05:02.901Z,98019.25
2022-10-31T06:07:34.050Z,98014.66
2022-10-31T06:10:01.172Z,97993.28
2022-10-31T06:12:27.716Z,97996.22
2022-10-31T06:14:54.202Z,97996.03
2022-10-31T06:17:20.703Z,97987.84
2022-10-31T06:19:47.293Z,97977.94
2022-10-31T06:22:16.249Z,97964.00
2022-10-31T06:24:42.772Z,97972.13
2022-10-31T06:27:09.257Z,97944.81
2022-10-31T06:29:35.728Z,97941.28
2022-10-31T06:32:02.268Z,97922.13
2022-10-31T06:34:28.766Z,97938.59
2022-10-31T06:36:55.241Z,97937.34
2022-10-31T06:39:21.774Z,97930.13
2022-10-31T06:41:49.491Z,97938.59
2022-10-31T06:44:19.221Z,97941.25
2022-10-31T06:46:50.212Z,97942.84
2022-10-31T06:49:20.242Z,97960.09
2022-10-31T06:51:50.693Z,97959.69
2022-10-31T06:54:20.610Z,97954.59
2022-10-31T06:56:48.454Z,97952.09
2022-10-31T06:59:19.783Z,97968.78
2022-10-31T07:01:49.543Z,97963.00
2022-10-31T07:04:16.905Z,97953.81
2022-10-31T07:06:48.160Z,97959.03
2022-10-31T07:09:20.652Z,97972.88
2022-10-31T07:11:52.821Z,97972.06
2022-10-31T07:14:20.627Z,97978.75
2022-10-31T07:16:51.858Z,97988.91
2022-10-31T07:19:21.780Z,97989.47
2022-10-31T07:21:52.087Z,97980.75
2022-10-31T07:24:22.338Z,97983.88
2022-10-31T07:26:50.764Z,97984.41
2022-10-31T07:29:20.089Z,97986.72
2022-10-31T07:31:48.345Z,97990.44
2022-10-31T07:34:15.160Z,97984.66
2022-10-31T07:36:41.694Z,97984.31
2022-10-31T07:39:08.487Z,97984.44
2022-10-31T07:41:35.327Z,97986.75
2022-10-31T07:44:02.107Z,97995.63
2022-10-31T07:46:30.138Z,97970.13
2022-10-31T07:48:56.975Z,97975.94
2022-10-31T07:51:25.146Z,97984.88
2022-10-31T07:53:53.621Z,97986.81
2022-10-31T07:56:24.572Z,97978.31
2022-10-31T07:58:51.576Z,97988.03
2022-10-31T08:01:18.052Z,97993.38
2022-10-31T08:03:44.553Z,97988.44
2022-10-31T08:06:11.349Z,97981.47
2022-10-31T08:08:38.660Z,97996.41
2022-10-31T08:11:05.411Z,97987.88
2022-10-31T08:13:31.946Z,97975.47
2022-10-31T08:16:04.297Z,97971.84
2022-10-31T08:18:31.463Z,97969.59
2022-10-31T08:20:58.642Z,97964.81
2022-10-31T08:23:25.208Z,97965.88
2022-10-31T08:25:51.875Z,97957.22
2022-10-31T08:28:24.416Z,97957.47
2022-10-31T08:30:51.736Z,97948.56
2022-10-31T08:33:23.010Z,97960.09
2022-10-31T08:35:53.333Z,97954.69
2022-10-31T08:38:23.657Z,97959.94
2022-10-31T08:40:53.019Z,97955.56
2022-10-31T08:43:22.320Z,97952.03
2022-10-31T08:45:51.177Z,97949.50
2022-10-31T08:48:21.288Z,97957.75
2022-10-31T08:50:48.105Z,97947.53
2022-10-31T08:53:16.105Z,97947.53
2022-10-31T08:55:43.757Z,97944.97
2022-10-31T08:58:24.634Z,97949.06
2022-10-31T09:00:55.617Z,97939.41
2022-10-31T09:03:27.458Z,97940.66
2022-10-31T09:06:03.807Z,97940.28
2022-10-31T09:08:32.137Z,97943.94
2022-10-31T09:10:59.721Z,97943.34
2022-10-31T09:13:28.287Z,97938.75
2022-10-31T09:15:55.053Z,97933.47
2022-10-31T09:18:23.846Z,97934.59
2022-10-31T09:20:53.502Z,97936.19
2022-10-31T09:23:24.084Z,97924.06
2022-10-31T09:25:53.430Z,97917.84
2022-10-31T09:28:24.918Z,97929.81
2022-10-31T09:30:54.059Z,97912.59
2022-10-31T09:33:21.836Z,97939.25
2022-10-31T09:35:50.816Z,97939.00
2022-10-31T09:38:24.497Z,97932.78
2022-10-31T09:41:03.221Z,97932.06
2022-10-31T09:43:43.109Z,97929.59
2022-10-31T09:46:22.138Z,97927.00
2022-10-31T09:48:54.808Z,97928.13
2022-10-31T09:51:33.232Z,97919.28
2022-10-31T09:54:02.879Z,97920.06
2022-10-31T09:56:32.443Z,97915.84
2022-10-31T09:59:06.027Z,97918.88
2022-10-31T10:01:57.175Z,97919.47
2022-10-31T10:04:58.187Z,97912.94
2022-10-31T10:07:33.982Z,97900.22
2022-10-31T10:10:02.882Z,97892.59
2022-10-31T10:13:11.870Z,97889.59
2022-10-31T10:15:52.285Z,97888.81
2022-10-31T10:18:57.634Z,97888.25
2022-10-31T10:21:33.156Z,97883.22
2022-10-31T10:24:30.432Z,97890.88
2022-10-31T10:27:06.416Z,97883.78
2022-10-31T10:29:43.757Z,97885.69
2022-10-31T10:32:28.465Z,97873.94
2022-10-31T10:35:03.376Z,97881.84
2022-10-31T10:37:38.666Z,97884.19
2022-10-31T10:40:26.425Z,97883.03
2022-10-31T10:43:32.050Z,97877.72
2022-10-31T10:46:54.975Z,97874.66
2022-10-31T10:49:53.743Z,97878.47
2022-10-31T10:52:50.187Z,97877.38
2022-10-31T10:55:39.170Z,97869.97
2022-10-31T10:58:08.982Z,97869.97
2022-10-31T11:00:39.266Z,97866.13
2022-10-31T11:03:06.702Z,97858.25
2022-10-31T11:05:36.720Z,97852.09
2022-10-31T11:08:04.974Z,97868.06
2022-10-31T11:10:31.598Z,97853.03
2022-10-31T11:13:22.991Z,97861.66
2022-10-31T11:16:06.073Z,97850.41
2022-10-31T11:18:35.697Z,97855.53
2022-10-31T11:21:05.254Z,97852.13
2022-10-31T11:23:32.772Z,97845.34
2022-10-31T11:26:07.352Z,97824.66
2022-10-31T11:28:38.012Z,97829.84
2022-10-31T11:31:13.031Z,97832.53
2022-10-31T11:33:52.961Z,97832.47
2022-10-31T11:36:30.557Z,97821.28
2022-10-31T11:38:59.005Z,97824.47
2022-10-31T11:41:32.721Z,97822.31
2022-10-31T11:44:02.488Z,97809.59
2022-10-31T11:46:40.653Z,97812.84
2022-10-31T11:49:18.450Z,97786.00
2022-10-31T11:51:49.974Z,97793.09
2022-10-31T11:54:42.898Z,97777.47
2022-10-31T11:57:30.398Z,97793.44
2022-10-31T11:59:59.670Z,97786.06
2022-10-31T12:02:27.442Z,97776.66
2022-10-31T12:05:19.276Z,97762.81
2022-10-31T12:07:45.774Z,97759.53
2022-10-31T12:10:13.614Z,97744.25
2022-10-31T12:12:54.180Z,97747.22
2022-10-31T12:15:23.003Z,97754.69
2022-10-31T12:18:04.970Z,97740.75
2022-10-31T12:21:01.039Z,97732.06
2022-10-31T12:23:42.886Z,97733.78
2022-10-31T12:26:38.207Z,97724.38
2022-10-31T12:29:04.664Z,97717.25
2022-10-31T12:31:58.744Z,97721.97
2022-10-31T12:34:42.671Z,97719.72
2022-10-31T12:37:41.606Z,97716.50
2022-10-31T12:40:08.061Z,97692.81
2022-10-31T12:42:58.916Z,97713.25
2022-10-31T12:45:41.318Z,97699.28
2022-10-31T12:48:46.388Z,97697.88
2022-10-31T12:51:31.356Z,97697.22
2022-10-31T12:54:16.418Z,97695.31
2022-10-31T12:57:01.292Z,97685.41
2022-10-31T12:59:42.276Z,97682.66
2022-10-31T13:02:19.793Z,97676.63
2022-10-31T13:05:05.883Z,97662.97
2022-10-31T13:07:40.382Z,97663.66
2022-10-31T13:10:14.515Z,97650.97
2022-10-31T13:12:42.823Z,97646.72
2022-10-31T13:15:28.730Z,97643.50
2022-10-31T13:18:07.765Z,97634.94
2022-10-31T13:20:41.635Z,97632.06
2022-10-31T13:23:44.637Z,97636.84
2022-10-31T13:26:43.291Z,97632.28
2022-10-31T13:29:20.480Z,97630.75
2022-10-31T13:31:47.177Z,97624.31
2022-10-31T13:34:25.995Z,97628.31
2022-10-31T13:37:00.288Z,97625.09
2022-10-31T13:39:47.849Z,97622.13
2022-10-31T13:42:33.598Z,97618.38
2022-10-31T13:45:14.825Z,97618.84
2022-10-31T13:47:55.792Z,97603.53
2022-10-31T13:50:31.160Z,97615.94
2022-10-31T13:53:18.377Z,97614.00
2022-10-31T13:55:50.757Z,97610.56
2022-10-31T13:58:29.336Z,97606.28
2022-10-31T14:01:14.680Z,97609.03
2022-10-31T14:04:05.052Z,97624.50
2022-10-31T14:06:49.109Z,97614.75
2022-10-31T14:09:29.833Z,97596.28
2022-10-31T14:11:58.928Z,97610.41
2022-10-31T14:14:34.016Z,97596.00
2022-10-31T14:17:01.077Z,97589.50
2022-10-31T14:19:28.586Z,97598.72
2022-10-31T14:21:59.029Z,97580.03
2022-10-31T14:24:25.490Z,97590.88
2022-10-31T14:26:57.888Z,97589.00
2022-10-31T14:29:28.797Z,97574.09
2022-10-31T14:32:15.686Z,97586.00
2022-10-31T14:34:56.878Z,97583.84
2022-10-31T14:38:20.175Z,97583.84
2022-10-31T14:41:01.870Z,97571.38
2022-10-31T14:43:40.700Z,97579.22
2022-10-31T14:46:31.878Z,97578.66
2022-10-31T14:49:21.266Z,97571.31
2022-10-31T14:51:49.484Z,97545.03
2022-10-31T14:54:25.297Z,97566.16
2022-10-31T14:57:00.745Z,97542.03
2022-10-31T14:59:39.096Z,97564.97
2022-10-31T15:02:37.701Z,97565.44
2022-10-31T15:05:09.747Z,97565.16
2022-10-31T15:07:37.586Z,97558.81
2022-10-31T15:10:06.045Z,97560.41
2022-10-31T15:12:35.441Z,97565.50
2022-10-31T15:15:27.911Z,97557.75
2022-10-31T15:18:00.980Z,97555.47
2022-10-31T15:20:31.033Z,97559.66
2022-10-31T15:22:59.411Z,97568.31
2022-10-31T15:25:29.431Z,97556.88
2022-10-31T15:27:56.209Z,97564.56
2022-10-31T15:30:30.295Z,97558.88
2022-10-31T15:32:59.032Z,97569.91
2022-10-31T15:35:31.093Z,97573.16
2022-10-31T15:37:59.579Z,97566.75
2022-10-31T15:40:29.475Z,97573.44
2022-10-31T15:43:05.665Z,97568.38
2022-10-31T15:45:32.363Z,97567.34
2022-10-31T15:48:00.896Z,97563.38
2022-10-31T15:50:30.646Z,97565.78
2022-10-31T15:53:01.705Z,97566.28
2022-10-31T15:55:33.319Z,97571.63
2022-10-31T15:58:05.731Z,97564.69
2022-10-31T16:00:35.208Z,97577.19
2022-10-31T16:03:11.140Z,97563.69
2022-10-31T16:05:44.310Z,97563.91
2022-10-31T16:08:29.654Z,97567.16
2022-10-31T16:11:01.641Z,97568.72
2022-10-31T16:13:31.903Z,97566.47
2022-10-31T16:16:33.061Z,97569.38
2022-10-31T16:18:49.598Z,97565.19
2022-10-31T16:21:16.590Z,97565.41
2022-10-31T16:23:51.465Z,97567.06
2022-10-31T16:26:20.110Z,97576.19
2022-10-31T16:29:03.187Z,97575.31
2022-10-31T16:31:38.943Z,97575.56
2022-10-31T16:34:06.597Z,97570.31
2022-10-31T16:36:44.518Z,97579.22
2022-10-31T16:39:11.139Z,97581.72
2022-10-31T16:41:47.295Z,97574.25
2022-10-31T16:44:22.392Z,97583.59
2022-10-31T16:46:49.327Z,97585.88
2022-10-31T16:49:16.612Z,97582.41
2022-10-31T16:51:43.888Z,97578.91
2022-10-31T16:54:11.782Z,97587.31
2022-10-31T16:56:39.061Z,97575.59
2022-10-31T16:59:15.811Z,97578.38
2022-10-31T17:01:50.221Z,97587.53
2022-10-31T17:04:16.931Z,97587.59
2022-10-31T17:06:43.442Z,97589.81
2022-10-31T17:09:10.556Z,97598.44
2022-10-31T17:11:37.444Z,97597.94
2022-10-31T17:14:04.979Z,97600.28
2022-10-31T17:16:31.462Z,97596.03
2022-10-31T17:19:00.326Z,97600.31
2022-10-31T17:21:30.143Z,97603.56
2022-10-31T17:23:56.695Z,97605.69
2022-10-31T17:26:23.277Z,97606.81
2022-10-31T17:28:49.838Z,97612.78
2022-10-31T17:31:22.744Z,97615.97
2022-10-31T17:33:50.163Z,97617.06
2022-10-31T17:36:17.067Z,97620.72
2022-10-31T17:38:43.582Z,97626.19
2022-10-31T17:41:11.440Z,97610.84
2022-10-31T17:43:38.689Z,97629.72
2022-10-31T17:46:05.445Z,97633.13
2022-10-31T17:48:36.588Z,97634.34
2022-10-31T17:51:04.949Z,97641.16
2022-10-31T17:53:35.092Z,97652.25
2022-10-31T17:56:07.060Z,97650.44
2022-10-31T17:58:35.657Z,97658.22
2022-10-31T18:01:10.883Z,97675.19
2022-10-31T18:03:38.694Z,97677.59
2022-10-31T18:06:05.964Z,97679.13
2022-10-31T18:08:35.267Z,97683.25
2022-10-31T18:11:10.992Z,97686.16
2022-10-31T18:13:38.437Z,97682.75
2022-10-31T18:16:13.144Z,97683.66
2022-10-31T18:18:40.427Z,97685.78
2022-10-31T18:21:07.383Z,97695.25
2022-10-31T18:23:34.723Z,97684.19
2022-10-31T18:26:01.274Z,97699.25
2022-10-31T18:28:27.984Z,97687.16
2022-10-31T18:30:54.759Z,97700.44
2022-10-31T18:33:21.326Z,97695.91
2022-10-31T18:35:47.888Z,97704.03
2022-10-31T18:38:14.392Z,97691.88
2022-10-31T18:40:40.948Z,97699.94
2022-10-31T18:43:07.429Z,97696.16
2022-10-31T18:45:46.577Z,97702.97
2022-10-31T18:48:14.670Z,97702.50
2022-10-31T18:50:41.580Z,97703.91
2022-10-31T18:53:08.793Z,97706.72
2022-10-31T18:55:43.891Z,97713.47
2022-10-31T18:58:17.118Z,97724.28
2022-10-31T19:00:44.832Z,97722.22
2022-10-31T19:03:12.164Z,97732.91
2022-10-31T19:05:38.770Z,97734.09
2022-10-31T19:08:08.929Z,97741.22
2022-10-31T19:10:39.933Z,97740.19
2022-10-31T19:13:10.118Z,97745.69
2022-10-31T19:15:40.213Z,97749.31
2022-10-31T19:18:07.359Z,97764.31
2022-10-31T19:20:36.183Z,97773.06
2022-10-31T19:23:03.052Z,97773.97
2022-10-31T19:25:30.422Z,97778.47
2022-10-31T19:27:58.120Z,97786.25
2022-10-31T19:30:24.826Z,97780.41
2022-10-31T19:32:55.259Z,97792.09
2022-10-31T19:35:21.816Z,97761.28
2022-10-31T19:37:48.324Z,97790.94
2022-10-31T19:40:14.861Z,97790.88
2022-10-31T19:42:41.349Z,97807.84
2022-10-31T19:45:11.078Z,97778.00
2022-10-31T19:47:40.396Z,97797.63
2022-10-31T19:50:10.115Z,97824.22
2022-10-31T19:52:39.389Z,97831.69
2022-10-31T19:55:08.243Z,97829.91
2022-10-31T19:58:11.727Z,97800.91
2022-10-31T20:00:27.476Z,97830.19
2022-10-31T20:02:53.970Z,97844.00
2022-10-31T20:05:20.470Z,97852.25
2022-10-31T20:07:46.985Z,97865.84
2022-10-31T20:10:13.461Z,97858.69
2022-10-31T20:12:40.034Z,97852.25
2022-10-31T20:15:11.140Z,97840.25
2022-10-31T20:17:41.391Z,97860.94
2022-10-31T20:20:10.980Z,97817.97
2022-10-31T20:22:40.846Z,97825.06
2022-10-31T20:25:10.988Z,97833.69
2022-10-31T20:27:42.266Z,97793.81
2022-10-31T20:30:12.411Z,97826.59
2022-10-31T20:32:45.226Z,97854.94
2022-10-31T20:35:17.367Z,97850.41
2022-10-31T20:37:44.376Z,97852.25
2022-10-31T20:40:11.183Z,97854.69
2022-10-31T20:42:43.721Z,97856.53
2022-10-31T20:45:10.778Z,97860.03
2022-10-31T20:47:39.490Z,97851.56
2022-10-31T20:50:09.500Z,97862.84
2022-10-31T20:52:36.100Z,97841.94
2022-10-31T20:55:02.824Z,97848.56
2022-10-31T20:57:29.481Z,97857.00
2022-10-31T20:59:56.075Z,97856.00
2022-10-31T21:02:22.873Z,97870.69
2022-10-31T21:04:49.690Z,97878.31
2022-10-31T21:07:16.276Z,97877.88
2022-10-31T21:09:42.847Z,97888.09
2022-10-31T21:12:10.049Z,97858.38
2022-10-31T21:14:39.457Z,97889.56
2022-10-31T21:17:07.879Z,97867.84
2022-10-31T21:19:36.174Z,97863.97
2022-10-31T21:22:03.569Z,97887.22
2022-10-31T21:24:30.105Z,97867.16
2022-10-31T21:26:56.737Z,97871.56
2022-10-31T21:29:23.349Z,97855.94
2022-10-31T21:31:50.882Z,97853.31
2022-10-31T21:34:18.537Z,97866.69
2022-10-31T21:36:45.316Z,97883.16
2022-10-31T21:39:12.220Z,97869.16
2022-10-31T21:41:44.224Z,97872.50
2022-10-31T21:44:13.824Z,97871.03
2022-10-31T21:46:44.389Z,97877.03
2022-10-31T21:49:14.042Z,97870.25
2022-10-31T21:51:44.181Z,97879.50
2022-10-31T21:54:30.131Z,97883.81
2022-10-31T21:56:58.760Z,97883.41
2022-10-31T21:59:25.955Z,97885.06
2022-10-31T22:01:52.995Z,97892.63
2022-10-31T22:04:19.873Z,97875.59
2022-10-31T22:06:46.587Z,97888.13
2022-10-31T22:09:14.780Z,97895.94
2022-10-31T22:11:44.542Z,97899.03
2022-10-31T22:14:15.196Z,97878.47
2022-10-31T22:16:44.732Z,97867.59
2022-10-31T22:19:15.435Z,97896.38
2022-10-31T22:21:48.632Z,97886.47
2022-10-31T22:24:16.409Z,97908.69
2022-10-31T22:26:46.120Z,97911.75
2022-10-31T22:29:20.561Z,97911.56
2022-10-31T22:31:51.925Z,97904.75
2022-10-31T22:34:22.115Z,97902.50
2022-10-31T22:36:48.730Z,97909.47
2022-10-31T22:39:15.323Z,97903.72
2022-10-31T22:41:44.299Z,97901.66
2022-10-31T22:44:10.938Z,97893.25
2022-10-31T22:46:39.851Z,97911.97
2022-10-31T22:49:10.039Z,97918.16
2022-10-31T22:51:39.100Z,97897.19
2022-10-31T22:54:09.829Z,97918.75
2022-10-31T22:56:36.419Z,97897.81
2022-10-31T22:59:03.357Z,97928.41
2022-10-31T23:01:32.515Z,97914.44
2022-10-31T23:04:00.244Z,97932.94
2022-10-31T23:06:30.300Z,97915.28
2022-10-31T23:08:57.627Z,97925.28
2022-10-31T23:11:34.589Z,97926.75
2022-10-31T23:14:09.673Z,97930.03
2022-10-31T23:16:37.571Z,97931.91
2022-10-31T23:19:07.999Z,97933.34
2022-10-31T23:21:55.356Z,97933.13
2022-10-31T23:24:29.631Z,97939.72
2022-10-31T23:27:09.434Z,97915.63
2022-10-31T23:29:37.379Z,97939.91
2022-10-31T23:32:05.393Z,97933.94
2022-10-31T23:34:32.262Z,97910.50
2022-10-31T23:36:58.850Z,97938.69
2022-10-31T23:39:25.431Z,97945.69
2022-10-31T23:41:52.509Z,97951.84
2022-10-31T23:44:19.056Z,97928.41
2022-10-31T23:46:47.654Z,97952.47
2022-10-31T23:49:14.196Z,97925.72
2022-10-31T23:51:40.792Z,97932.91
2022-10-31T23:54:08.148Z,97943.59
2022-10-31T23:56:34.979Z,97934.59
2022-10-31T23:59:02.111Z,97968.69
